Time;durP1;ratioP1;P1;durP2;ratioP2;P2;SDS_P1;SDS_P2;PMS_P1;PMS_P2;Temp;Humidity;BMP_temperature;BMP_pressure;BME280_temperature;BME280_humidity;BME280_pressure;Samples;Min_cycle;Max_cycle;Signal;HPM_P1;HPM_P2
2023/06/13 00:00:52;;;;;;;9.98;4.43;;;12.80;99.90;;;12.42;100.00;100896.75;5005101;28;20041;-85
2023/06/13 00:03:21;;;;;;;6.22;4.18;;;12.70;99.90;;;12.24;100.00;100881.94;5003687;28;20926;-85
2023/06/13 00:05:48;;;;;;;6.45;3.92;;;12.50;99.90;;;12.26;100.00;100890.78;4998385;28;20375;-85
2023/06/13 00:08:18;;;;;;;7.03;3.92;;;12.50;99.90;;;12.24;100.00;100890.16;4990853;28;20030;-85
2023/06/13 00:10:46;;;;;;;8.70;4.10;;;12.50;99.90;;;12.25;98.75;100883.63;5003494;28;20477;-85
2023/06/13 00:13:14;;;;;;;8.05;4.20;;;12.50;99.90;;;12.23;97.94;100886.59;4999609;28;20053;-85
2023/06/13 00:15:52;;;;;;;6.55;3.40;;;12.40;99.90;;;12.33;97.98;100891.56;4981936;28;20069;-84
2023/06/13 00:18:20;;;;;;;6.03;3.97;;;12.40;99.90;;;12.28;98.42;100885.09;5004427;28;20045;-84
2023/06/13 00:20:47;;;;;;;7.03;3.93;;;12.40;99.90;;;12.16;97.90;100882.22;5005364;28;20039;-84
2023/06/13 00:23:13;;;;;;;7.40;3.53;;;12.30;99.90;;;12.16;98.15;100888.53;4982463;28;20469;-86
2023/06/13 00:25:38;;;;;;;5.43;3.40;;;12.30;99.90;;;12.00;98.84;100867.16;4993938;28;20042;-86
2023/06/13 00:28:04;;;;;;;4.95;3.80;;;12.20;99.90;;;12.09;99.37;100890.47;4995919;28;20045;-84
2023/06/13 00:30:30;;;;;;;8.02;3.65;;;12.20;99.90;;;12.05;100.00;100881.03;4985690;28;20613;-85
2023/06/13 00:32:56;;;;;;;5.45;3.50;;;12.10;99.90;;;11.97;100.00;100882.09;4998674;28;20540;-84
2023/06/13 00:35:23;;;;;;;5.43;3.55;;;12.10;99.90;;;12.01;100.00;100885.28;4997386;28;20475;-84
2023/06/13 00:37:54;;;;;;;5.68;3.45;;;12.10;99.90;;;12.00;99.16;100889.03;5002955;28;20118;-84
2023/06/13 00:40:20;;;;;;;7.03;3.85;;;12.10;99.90;;;12.09;98.03;100876.81;4994524;28;20049;-85
2023/06/13 00:42:52;;;;;;;5.63;3.50;;;12.20;99.90;;;12.17;96.99;100887.47;4997295;28;20367;-85
2023/06/13 00:45:27;;;;;;;5.82;3.40;;;12.20;99.90;;;12.23;94.67;100872.06;4976228;28;20050;-84
2023/06/13 00:47:59;;;;;;;10.68;3.65;;;12.30;99.90;;;12.28;93.06;100879.63;4993385;28;20253;-85
2023/06/13 00:50:30;;;;;;;7.05;3.42;;;12.30;99.90;;;12.51;92.70;100885.31;4995620;28;20042;-85
2023/06/13 00:52:59;;;;;;;5.40;3.55;;;12.40;99.90;;;12.62;91.16;100874.69;5000440;28;20030;-86
2023/06/13 00:55:27;;;;;;;7.50;3.50;;;12.50;99.90;;;12.62;90.76;100886.50;4999302;28;20061;-85
2023/06/13 00:57:58;;;;;;;6.20;3.63;;;12.60;99.90;;;12.62;90.82;100874.69;4993248;28;20042;-86
2023/06/13 01:00:26;;;;;;;5.43;3.30;;;12.60;99.90;;;12.68;89.65;100876.50;5001965;28;20049;-86
2023/06/13 01:02:58;;;;;;;4.93;3.30;;;12.60;99.90;;;12.68;88.18;100873.78;5010059;28;20113;-86
2023/06/13 01:05:27;;;;;;;8.60;3.70;;;12.70;99.90;;;12.74;88.03;100853.75;5004395;28;20034;-85
2023/06/13 01:07:58;;;;;;;6.50;3.20;;;12.80;99.90;;;12.79;87.22;100864.84;4997641;28;20066;-84
2023/06/13 01:10:29;;;;;;;5.05;3.30;;;12.80;99.90;;;12.77;86.70;100860.63;4994533;28;20044;-84
2023/06/13 01:13:24;;;;;;;4.70;3.42;;;12.80;99.90;;;12.81;86.52;100872.81;4992641;28;20033;-85
2023/06/13 01:16:02;;;;;;;7.28;3.55;;;12.80;99.90;;;12.88;87.69;100859.06;5008638;28;20041;-85
2023/06/13 01:18:35;;;;;;;5.95;3.20;;;12.90;99.90;;;12.93;86.86;100864.69;4983856;28;20049;-85
2023/06/13 01:21:04;;;;;;;6.40;3.30;;;12.90;99.90;;;12.99;86.09;100858.28;5001238;28;20124;-84
2023/06/13 01:23:49;;;;;;;6.40;3.47;;;12.90;99.90;;;13.16;83.09;100864.03;4996241;28;20113;-86
2023/06/13 01:26:44;;;;;;;5.22;3.35;;;13.10;99.90;;;13.23;81.60;100863.91;5003039;28;20053;-85
2023/06/13 01:29:12;;;;;;;5.50;3.60;;;13.20;99.90;;;13.32;80.88;100868.03;5008066;28;20458;-85
2023/06/13 01:31:41;;;;;;;7.22;3.55;;;13.20;99.90;;;13.37;80.31;100861.84;5010317;28;20063;-85
2023/06/13 01:34:10;;;;;;;5.40;3.33;;;13.30;99.90;;;13.30;81.10;100853.72;4999357;28;20033;-86
2023/06/13 01:36:36;;;;;;;5.93;3.10;;;13.30;99.90;;;13.20;84.78;100864.38;4995686;28;20038;-86
2023/06/13 01:39:03;;;;;;;7.13;3.70;;;13.30;99.90;;;13.13;84.89;100861.75;4998678;28;20037;-85
2023/06/13 01:41:29;;;;;;;10.65;3.47;;;13.10;99.90;;;13.01;85.26;100856.19;5000600;28;20505;-86
2023/06/13 01:43:54;;;;;;;6.18;3.30;;;13.10;99.90;;;12.92;86.17;100854.78;4992580;28;20041;-87
2023/06/13 01:46:29;;;;;;;7.75;3.50;;;13.00;99.90;;;13.11;84.04;100860.28;4994088;28;20042;-86
2023/06/13 01:49:06;;;;;;;6.72;3.63;;;13.10;99.90;;;13.06;83.08;100859.06;4985115;28;20475;-86
2023/06/13 01:51:55;;;;;;;5.68;3.45;;;13.10;99.90;;;13.04;81.87;100852.13;4991463;28;20042;-86
2023/06/13 01:54:25;;;;;;;4.97;3.47;;;13.10;99.90;;;13.02;82.31;100855.13;4993936;28;20652;-86
2023/06/13 01:57:00;;;;;;;8.10;3.63;;;13.10;99.90;;;12.87;83.61;100851.91;5007570;28;20287;-86
2023/06/13 01:59:28;;;;;;;5.43;3.63;;;12.90;99.90;;;12.64;85.99;100851.50;4989431;28;20057;-86
2023/06/13 02:01:58;;;;;;;4.57;3.38;;;12.80;99.90;;;12.52;88.26;100854.16;4999693;28;20098;-86
2023/06/13 02:04:23;;;;;;;4.90;3.22;;;12.70;99.90;;;12.56;87.11;100856.44;5000012;28;20039;-85
2023/06/13 02:06:49;;;;;;;7.15;3.30;;;12.70;99.90;;;12.60;85.30;100847.56;5019840;28;20548;-86
2023/06/13 02:09:15;;;;;;;6.15;3.45;;;12.70;99.90;;;12.65;84.24;100857.81;5016357;28;20089;-86
2023/06/13 02:11:44;;;;;;;5.97;3.25;;;12.80;99.90;;;12.63;83.63;100859.94;5015294;28;20042;-86
2023/06/13 02:14:09;;;;;;;7.40;3.50;;;12.80;99.90;;;12.59;82.93;100842.28;5003317;28;20034;-87
2023/06/13 02:16:39;;;;;;;7.97;3.63;;;12.80;99.90;;;12.42;83.35;100847.50;4998599;28;20069;-86
2023/06/13 02:19:07;;;;;;;6.10;3.53;;;12.70;99.90;;;12.22;85.36;100860.31;5003708;28;20037;-86
2023/06/13 02:21:33;;;;;;;7.13;3.38;;;12.40;99.90;;;12.00;87.36;100861.69;4982202;28;20104;-85
2023/06/13 02:23:59;;;;;;;6.03;3.10;;;12.20;99.90;;;11.79;89.64;100852.78;4993836;28;20038;-85
2023/06/13 02:26:28;;;;;;;8.18;3.70;;;12.10;99.90;;;11.60;92.70;100849.94;4996810;28;20034;-84
2023/06/13 02:28:58;;;;;;;5.72;3.95;;;11.90;99.90;;;11.51;95.42;100854.81;4984864;28;20049;-85
2023/06/13 02:31:24;;;;;;;5.60;3.58;;;11.70;99.90;;;11.47;95.83;100852.75;4994712;28;20045;-84
2023/06/13 02:33:50;;;;;;;9.18;3.85;;;11.70;99.90;;;11.51;93.89;100848.53;5006651;28;20042;-85
2023/06/13 02:36:16;;;;;;;6.40;3.30;;;11.80;99.90;;;11.59;92.91;100853.72;4994752;28;20427;-85
2023/06/13 02:38:44;;;;;;;6.85;3.85;;;11.80;99.90;;;11.60;91.58;100858.13;4995231;28;20046;-85
2023/06/13 02:41:10;;;;;;;;;;;11.80;99.90;;;11.44;91.40;100829.44;4996605;28;20121;-87
2023/06/13 02:43:36;;;;;;;6.80;3.58;;;11.80;99.90;;;11.68;90.52;100848.03;4998070;28;19925;-86
2023/06/13 02:46:02;;;;;;;6.43;3.75;;;11.90;99.90;;;11.55;89.91;100855.22;4994233;28;20065;-86
2023/06/13 02:48:28;;;;;;;5.88;3.40;;;11.80;99.90;;;11.42;90.63;100847.94;5007394;28;20045;-86
2023/06/13 02:50:54;;;;;;;4.88;3.33;;;11.70;99.90;;;11.36;92.31;100838.72;5000520;28;20034;-85
2023/06/13 02:53:20;;;;;;;5.10;3.38;;;11.70;99.90;;;11.45;92.08;100852.97;5000658;28;20039;-87
2023/06/13 02:55:46;;;;;;;5.68;3.25;;;11.70;99.90;;;11.36;92.27;100848.81;4991911;28;20045;-86
2023/06/13 02:58:13;;;;;;;5.28;3.08;;;11.60;99.90;;;11.20;93.70;100855.59;4976296;28;20117;-86
2023/06/13 03:00:40;;;;;;;6.82;3.38;;;11.50;99.90;;;11.20;96.09;100861.06;4995807;28;20065;-86
2023/06/13 03:03:11;;;;;;;6.13;3.60;;;11.40;99.90;;;11.20;95.94;100852.88;5010472;28;20022;-85
2023/06/13 03:05:37;;;;;;;6.75;3.28;;;11.40;99.90;;;11.22;95.76;100856.22;4976057;28;20034;-77
2023/06/13 03:08:04;;;;;;;6.03;3.47;;;11.40;99.90;;;11.24;95.57;100854.13;4998084;28;20122;-82
2023/06/13 03:10:32;;;;;;;5.10;3.47;;;11.40;99.90;;;11.21;95.68;100844.44;4977826;28;20489;-83
2023/06/13 03:12:58;;;;;;;6.38;3.25;;;11.40;99.90;;;11.18;95.92;100849.53;5008913;28;20037;-82
2023/06/13 03:15:24;;;;;;;5.55;3.75;;;11.40;99.90;;;11.05;96.48;100851.22;4990414;28;20046;-83
2023/06/13 03:17:51;;;;;;;5.47;3.30;;;11.30;99.90;;;10.99;98.08;100853.97;4982018;28;20521;-81
2023/06/13 03:20:17;;;;;;;6.47;3.38;;;11.20;99.90;;;10.83;100.00;100849.81;4972476;28;20038;-83
2023/06/13 03:22:45;;;;;;;7.35;3.63;;;11.10;99.90;;;10.74;100.00;100850.06;4998049;28;20065;-81
2023/06/13 03:25:11;;;;;;;6.03;3.30;;;11.00;99.90;;;10.67;100.00;100848.41;4979958;28;20045;-78
2023/06/13 03:27:43;;;;;;;6.25;3.20;;;10.90;99.90;;;10.55;100.00;100857.22;4991107;28;20045;-79
2023/06/13 03:30:10;;;;;;;6.75;3.60;;;10.80;99.90;;;10.53;100.00;100861.22;4994750;28;20431;-82
2023/06/13 03:32:38;;;;;;;5.68;3.53;;;10.80;99.90;;;10.50;100.00;100857.84;4994864;28;20121;-82
2023/06/13 03:35:05;;;;;;;6.63;3.47;;;10.80;99.90;;;10.49;100.00;100864.38;4981627;28;20026;-78
2023/06/13 03:37:31;;;;;;;7.07;3.77;;;10.80;99.90;;;10.48;100.00;100859.13;4997061;28;20126;-81
2023/06/13 03:39:57;;;;;;;6.18;3.63;;;10.70;99.90;;;10.45;100.00;100854.94;5000063;28;20091;-83
2023/06/13 03:42:23;;;;;;;6.53;3.55;;;10.70;99.90;;;10.49;100.00;100855.34;4999343;28;20405;-79
2023/06/13 03:44:49;;;;;;;7.53;3.20;;;10.80;99.90;;;10.60;100.00;100845.66;5001357;28;20113;-79
2023/06/13 03:47:16;;;;;;;5.28;3.38;;;10.90;99.90;;;10.70;100.00;100851.53;4999127;28;20478;-80
2023/06/13 03:49:43;;;;;;;6.65;3.45;;;10.90;99.90;;;10.72;100.00;100863.09;4985183;28;20124;-80
2023/06/13 03:52:10;;;;;;;5.38;3.13;;;11.00;99.90;;;10.84;100.00;100857.81;4983631;28;20126;-79
2023/06/13 03:54:36;;;;;;;9.27;3.42;;;11.10;99.90;;;10.91;100.00;100866.00;5003372;28;20048;-79
2023/06/13 03:57:02;;;;;;;8.90;4.80;;;11.20;99.90;;;10.96;100.00;100863.44;4996994;28;20121;-79
2023/06/13 03:59:28;;;;;;;7.63;3.45;;;11.20;99.90;;;10.98;100.00;100861.34;4987221;28;20386;-81
2023/06/13 04:01:54;;;;;;;7.43;3.45;;;11.20;99.90;;;11.03;100.00;100864.25;5007143;28;20034;-82
2023/06/13 04:04:20;;;;;;;6.65;3.13;;;11.20;99.90;;;11.03;100.00;100869.72;4996202;28;20127;-83
2023/06/13 04:06:48;;;;;;;6.15;3.53;;;11.30;99.90;;;11.01;100.00;100863.66;5000476;28;20505;-85
2023/06/13 04:09:16;;;;;;;5.47;3.30;;;11.30;99.90;;;11.12;100.00;100872.22;4975439;28;20042;-85
2023/06/13 04:11:42;;;;;;;6.15;3.25;;;11.30;99.90;;;11.15;100.00;100871.81;4985293;28;20038;-84
2023/06/13 04:14:08;;;;;;;5.97;3.25;;;11.40;99.90;;;11.21;100.00;100870.94;5005595;28;20026;-83
2023/06/13 04:16:34;;;;;;;4.95;3.10;;;11.40;99.90;;;11.23;100.00;100869.66;5003057;28;20104;-85
2023/06/13 04:19:01;;;;;;;4.88;2.90;;;11.50;99.90;;;11.27;100.00;100871.94;4995214;28;20038;-84
2023/06/13 04:21:27;;;;;;;8.38;3.25;;;11.50;99.90;;;11.34;100.00;100870.06;4995809;28;20053;-84
2023/06/13 04:23:54;;;;;;;6.03;3.38;;;11.60;99.90;;;11.44;100.00;100869.59;5016520;28;20041;-83
2023/06/13 04:26:20;;;;;;;5.35;3.25;;;11.70;99.90;;;11.57;100.00;100869.50;4997056;28;20125;-81
2023/06/13 04:28:47;;;;;;;6.45;2.97;;;11.80;99.90;;;11.68;100.00;100869.91;4994078;28;20014;-83
2023/06/13 04:31:14;;;;;;;5.80;3.28;;;11.90;99.90;;;11.82;100.00;100862.44;4999074;28;20046;-84
2023/06/13 04:33:44;;;;;;;5.70;2.83;;;12.10;99.90;;;11.99;100.00;100869.06;4998380;28;20027;-84
2023/06/13 04:36:12;;;;;;;6.50;3.33;;;12.20;99.90;;;12.17;98.48;100868.31;4998907;28;20037;-83
2023/06/13 04:38:39;;;;;;;5.40;3.00;;;12.40;99.90;;;12.26;97.57;100860.69;4993213;28;20105;-84
2023/06/13 04:41:13;;;;;;;4.78;3.10;;;12.60;99.90;;;12.45;97.29;100868.94;4998309;28;20042;-83
2023/06/13 04:43:41;;;;;;;5.30;3.20;;;12.70;99.90;;;12.61;95.27;100868.38;4998590;28;20064;-85
2023/06/13 04:46:08;;;;;;;5.95;3.08;;;12.80;99.90;;;12.73;93.58;100862.16;5002294;28;20038;-84
2023/06/13 04:48:35;;;;;;;6.13;2.53;;;13.00;99.90;;;12.84;93.28;100871.53;4975426;28;20057;-84
2023/06/13 04:51:03;;;;;;;5.20;2.55;;;13.10;99.90;;;12.97;93.31;100862.34;4993112;28;20038;-85
2023/06/13 04:53:29;;;;;;;4.10;2.90;;;13.20;99.90;;;13.04;94.59;100858.47;4997178;28;20077;-85
2023/06/13 04:55:57;;;;;;;7.40;2.95;;;13.30;99.90;;;13.15;94.51;100858.75;4999009;28;20037;-84
2023/06/13 04:58:23;;;;;;;;;;;13.40;99.90;;;13.32;94.10;100869.94;4993356;28;20038;-84
2023/06/13 05:00:53;;;;;;;6.22;2.97;;;13.50;99.90;;;13.43;93.96;100871.09;4993290;28;19925;-83
2023/06/13 05:03:20;;;;;;;4.85;2.92;;;13.60;99.90;;;13.57;93.78;100869.00;4998858;28;20037;-83
2023/06/13 05:05:47;;;;;;;5.55;3.15;;;13.70;99.90;;;13.62;93.62;100859.03;5003256;28;20042;-83
2023/06/13 05:08:14;;;;;;;5.00;2.70;;;13.90;99.90;;;13.78;91.98;100864.91;4989561;28;20045;-84
2023/06/13 05:10:42;;;;;;;5.87;3.10;;;14.00;99.90;;;13.93;90.26;100859.03;5004926;28;20437;-83
2023/06/13 05:13:08;;;;;;;4.95;3.10;;;14.10;99.90;;;14.01;90.14;100857.84;5004620;28;20482;-83
2023/06/13 05:15:34;;;;;;;6.85;2.75;;;14.30;99.90;;;14.18;89.85;100861.56;4992539;28;20046;-84
2023/06/13 05:18:00;;;;;;;6.53;3.22;;;14.40;99.90;;;14.31;86.87;100863.28;4996548;28;20037;-84
2023/06/13 05:20:26;;;;;;;7.05;3.00;;;14.50;99.90;;;14.37;84.47;100856.00;5003021;28;20065;-84
2023/06/13 05:22:56;;;;;;;5.00;2.55;;;14.70;99.90;;;14.52;83.15;100863.78;4990791;28;20504;-87
2023/06/13 05:25:22;;;;;;;8.32;2.90;;;14.80;99.90;;;14.70;84.50;100865.56;5004856;28;20090;-84
2023/06/13 05:27:48;;;;;;;8.93;2.97;;;14.90;99.90;;;14.85;84.89;100861.50;5000492;28;20033;-85
2023/06/13 05:30:14;;;;;;;4.53;2.83;;;15.10;99.90;;;15.00;83.87;100859.09;4992455;28;20410;-83
2023/06/13 05:32:41;;;;;;;3.70;2.47;;;15.20;99.90;;;15.14;81.78;100862.44;4999660;28;20035;-84
2023/06/13 05:35:08;;;;;;;5.32;2.80;;;15.30;99.90;;;15.24;77.08;100859.06;4993309;28;20121;-83
2023/06/13 05:37:37;;;;;;;5.25;3.03;;;15.50;99.90;;;15.36;80.72;100856.28;5001311;28;20409;-84
2023/06/13 05:40:08;;;;;;;4.85;2.70;;;15.60;99.90;;;15.51;77.52;100850.25;5010740;28;20513;-84
2023/06/13 05:42:37;;;;;;;6.05;2.60;;;15.70;99.90;;;15.62;75.64;100854.84;5003496;28;20033;-83
2023/06/13 05:45:04;;;;;;;4.68;2.60;;;15.80;99.90;;;15.55;78.48;100832.19;5004089;28;20447;-83
2023/06/13 05:47:30;;;;;;;5.72;2.70;;;16.00;99.90;;;15.83;79.07;100849.75;5000927;28;20042;-84
2023/06/13 05:49:57;;;;;;;5.75;2.55;;;16.00;99.90;;;15.92;75.20;100845.56;5009145;28;20088;-83
2023/06/13 05:52:22;;;;;;;4.60;2.60;;;16.20;99.90;;;16.12;73.22;100851.66;5005601;28;20056;-84
2023/06/13 05:54:48;;;;;;;5.65;2.65;;;16.30;99.90;;;16.26;73.28;100850.22;4995329;28;20037;-84
2023/06/13 05:57:15;;;;;;;6.00;2.53;;;16.40;99.90;;;16.43;72.55;100852.97;5014394;28;20150;-85
2023/06/13 05:59:41;;;;;;;5.43;2.80;;;16.60;99.90;;;16.52;69.57;100850.63;5009425;28;20117;-82
2023/06/13 06:02:09;;;;;;;4.20;2.60;;;16.70;99.40;;;16.61;66.09;100840.88;5004397;28;20076;-82
2023/06/13 06:04:35;;;;;;;4.45;2.70;;;16.80;98.00;;;16.64;61.09;100840.38;5006802;28;20033;-81
2023/06/13 06:07:02;;;;;;;5.10;2.80;;;16.90;96.10;;;16.77;61.19;100841.94;4992025;28;20042;-81
2023/06/13 06:09:28;;;;;;;4.32;2.55;;;17.00;96.00;;;16.93;62.44;100845.72;5000419;28;20117;-80
2023/06/13 06:11:54;;;;;;;5.70;2.80;;;17.20;96.60;;;17.05;64.70;100847.56;5005296;28;20076;-81
2023/06/13 06:14:20;;;;;;;6.68;2.97;;;17.30;97.60;;;17.11;65.64;100841.03;5010605;28;20078;-81
2023/06/13 06:16:46;;;;;;;6.05;2.33;;;17.30;97.40;;;17.16;64.29;100843.84;4998215;28;20375;-82
2023/06/13 06:19:12;;;;;;;6.65;2.50;;;17.40;96.70;;;17.38;66.43;100851.28;5002147;28;20129;-81
2023/06/13 06:21:38;;;;;;;5.72;2.80;;;17.50;97.60;;;17.47;64.49;100854.41;4995201;28;20363;-82
2023/06/13 06:24:05;;;;;;;7.22;2.35;;;17.60;97.30;;;17.59;62.70;100848.75;5006341;28;20100;-83
2023/06/13 06:26:30;;;;;;;5.10;2.60;;;17.70;96.20;;;17.66;59.06;100825.38;4993941;28;20050;-85
2023/06/13 06:28:56;;;;;;;8.15;2.65;;;17.80;95.00;;;17.90;58.17;100841.63;4998465;28;20035;-82
2023/06/13 06:31:22;;;;;;;5.82;2.63;;;18.00;94.50;;;17.91;56.69;100843.28;5003831;28;20065;-83
2023/06/13 06:33:47;;;;;;;5.10;2.70;;;18.10;93.90;;;17.78;59.08;100846.47;4999569;28;20038;-82
2023/06/13 06:36:15;;;;;;;5.68;2.70;;;18.10;94.90;;;17.82;58.85;100833.81;5000293;28;20049;-82
2023/06/13 06:38:42;;;;;;;5.10;2.45;;;18.10;94.60;;;17.92;59.27;100846.88;4996467;28;20038;-82
2023/06/13 06:41:08;;;;;;;7.35;2.40;;;18.20;94.80;;;18.06;56.70;100839.84;4998065;28;20038;-83
2023/06/13 06:43:33;;;;;;;5.20;2.60;;;18.30;93.40;;;18.28;56.99;100849.97;5001905;28;20121;-83
2023/06/13 06:46:07;;;;;;;7.75;2.78;;;18.40;93.70;;;18.46;55.82;100845.97;4999771;28;20158;-83
2023/06/13 06:48:33;;;;;;;6.35;2.55;;;18.60;93.10;;;18.55;55.01;100840.78;5017247;28;20038;-84
2023/06/13 06:50:59;;;;;;;5.00;2.80;;;18.70;92.40;;;18.64;55.55;100850.22;4981471;28;20106;-84
2023/06/13 06:53:24;;;;;;;8.10;2.50;;;18.80;92.90;;;18.72;53.00;100829.56;5006699;28;20030;-84
2023/06/13 06:55:50;;;;;;;4.47;2.60;;;18.90;91.70;;;18.64;51.91;100832.84;5011904;28;20040;-85
2023/06/13 06:58:16;;;;;;;6.35;2.80;;;19.00;90.80;;;18.69;52.29;100816.28;5006558;28;20040;-87
2023/06/13 07:00:41;;;;;;;6.72;2.70;;;19.10;91.40;;;18.95;50.95;100841.28;5012332;28;20094;-87
2023/06/13 07:03:07;;;;;;;5.65;2.75;;;19.20;90.40;;;19.16;52.58;100841.44;4999498;28;20046;-82
2023/06/13 07:05:33;;;;;;;4.90;2.33;;;19.30;91.60;;;19.26;53.65;100830.41;5008389;28;20045;-86
2023/06/13 07:07:59;;;;;;;7.32;2.80;;;19.40;91.80;;;19.24;50.25;100829.84;4984476;28;20037;-86
2023/06/13 07:10:26;;;;;;;6.45;2.85;;;19.50;89.80;;;19.47;52.84;100844.31;4977412;28;20071;-86
2023/06/13 07:12:52;;;;;;;6.53;2.80;;;19.60;91.00;;;19.54;52.54;100833.78;5001329;28;20080;-87
2023/06/13 07:15:17;;;;;;;5.38;2.70;;;19.70;91.10;;;19.57;51.80;100830.47;5008465;28;20553;-86
2023/06/13 07:17:43;;;;;;;5.95;2.55;;;19.80;90.50;;;19.61;50.42;100842.66;4996615;28;20033;-86
2023/06/13 07:20:11;;;;;;;4.97;2.67;;;19.80;90.30;;;19.78;52.35;100836.06;5006646;28;20038;-86
2023/06/13 07:22:37;;;;;;;4.35;2.85;;;19.90;91.50;;;19.88;52.18;100849.91;5004339;28;20049;-85
2023/06/13 07:25:03;;;;;;;6.43;2.65;;;20.00;90.80;;;19.95;53.85;100855.22;4990692;28;20038;-85
2023/06/13 07:27:30;;;;;;;5.13;2.92;;;;;;;20.02;51.31;100846.66;5012735;28;20030;-85
2023/06/13 07:29:56;;;;;;;5.05;2.88;;;;;;;20.02;51.40;100849.41;5002704;28;20038;-81
2023/06/13 07:32:22;;;;;;;7.43;3.08;;;;;;;20.11;50.72;100850.50;4975945;28;20127;-82
2023/06/13 07:34:49;;;;;;;7.78;2.90;;;;;;;20.23;48.87;100850.25;4989503;28;20121;-82
2023/06/13 07:37:15;;;;;;;6.20;2.87;;;;;;;20.46;51.55;100850.78;5000031;28;20034;-80
2023/06/13 07:39:41;;;;;;;4.82;2.80;;;;;;;20.60;48.34;100842.72;5005570;28;20042;-82
2023/06/13 07:42:07;;;;;;;8.77;3.72;;;;;;;20.81;48.75;100844.38;5008889;28;20034;-83
2023/06/13 07:44:34;;;;;;;5.68;3.22;;;;;;;20.86;46.61;100839.94;5025910;28;20041;-82
2023/06/13 07:47:00;;;;;;;6.47;2.88;;;;;;;21.03;45.54;100836.81;5023908;28;20101;-82
2023/06/13 07:49:26;;;;;;;9.27;3.00;;;;;;;21.28;48.85;100858.09;5005821;28;20094;-85
2023/06/13 07:51:53;;;;;;;9.05;3.83;;;;;;;21.30;44.91;100842.00;5023149;28;20060;-86
2023/06/13 07:54:19;;;;;;;6.55;3.53;;;;;;;21.40;44.44;100832.78;5009529;28;20065;-83
2023/06/13 07:56:47;;;;;;;9.55;3.00;;;;;;;21.14;43.68;100830.13;4997317;28;20034;-83
2023/06/13 07:59:13;;;;;;;8.07;3.38;;;;;;;21.20;43.41;100822.59;4997251;28;20080;-85
2023/06/13 08:01:40;;;;;;;6.47;3.08;;;;;;;21.44;46.14;100838.56;5012366;28;20109;-82
2023/06/13 08:04:07;;;;;;;6.97;3.45;;;;;;;21.64;47.89;100849.59;5004369;28;20375;-84
2023/06/13 08:06:33;;;;;;;9.20;3.20;;;;;;;21.94;45.23;100838.59;4990821;28;20173;-86
2023/06/13 08:08:59;;;;;;;8.60;3.28;;;;;;;22.21;43.60;100832.50;5001278;28;20037;-85
2023/06/13 08:11:25;;;;;;;8.27;3.35;;;20.10;91.60;;;22.20;42.69;100822.53;5008260;28;20073;-84
2023/06/13 08:13:51;;;;;;;7.25;3.05;;;;;;;22.27;41.82;100828.56;4998973;28;20045;-83
2023/06/13 08:16:18;;;;;;;7.50;2.90;;;;;;;22.46;44.07;100844.56;4994337;28;20566;-82
2023/06/13 08:18:44;;;;;;;7.65;3.10;;;;;;;22.46;43.00;100840.94;4982686;28;20038;-82
2023/06/13 08:21:10;;;;;;;7.82;3.50;;;;;;;22.54;42.97;100832.81;4977377;28;20486;-85
2023/06/13 08:23:36;;;;;;;7.95;3.50;;;;;;;22.74;41.62;100830.09;4989087;28;20034;-83
2023/06/13 08:26:02;;;;;;;6.68;3.05;;;22.40;79.40;;;22.96;42.48;100832.34;4974667;28;20031;-80
2023/06/13 08:28:29;;;;;;;5.50;3.30;;;;;;;22.58;40.39;100818.31;4989915;28;20034;-83
2023/06/13 08:30:55;;;;;;;5.45;3.00;;;;;;;22.90;40.97;100820.44;4983901;28;20124;-81
2023/06/13 08:33:21;;;;;;;6.05;3.15;;;23.10;79.10;;;23.17;43.00;100832.91;4984325;28;20038;-82
2023/06/13 08:35:48;;;;;;;10.07;3.33;;;;;;;23.46;42.43;100833.97;4973074;28;20129;-83
2023/06/13 08:38:15;;;;;;;7.57;3.13;;;;;;;23.76;40.31;100813.22;4979396;28;20034;-82
2023/06/13 08:40:41;;;;;;;8.10;3.40;;;;;;;23.83;38.99;100793.31;4971942;28;20053;-81
2023/06/13 08:43:07;;;;;;;6.85;3.30;;;;;;;24.02;39.94;100810.03;4994858;28;20035;-84
2023/06/13 08:45:34;;;;;;;6.53;3.47;;;;;;;24.23;39.15;100807.72;4979978;28;20434;-81
2023/06/13 08:48:01;;;;;;;10.55;3.53;;;;;;;23.66;38.59;100805.00;4992106;28;20045;-85
2023/06/13 08:50:27;;;;;;;10.57;3.60;;;;;;;23.08;39.49;100818.03;4997951;28;20057;-84
2023/06/13 08:52:56;;;;;;;7.43;3.55;;;;;;;23.20;39.44;100814.81;4989090;28;20049;-86
2023/06/13 08:55:24;;;;;;;8.65;4.15;;;;;;;23.60;38.98;100804.25;4995383;28;20047;-88
2023/06/13 08:57:52;;;;;;;8.13;3.60;;;;;;;24.18;39.34;100809.75;4992499;28;20117;-86
2023/06/13 09:00:21;;;;;;;9.20;3.40;;;;;;;24.62;38.96;100810.34;4979784;28;20055;-82
2023/06/13 09:02:48;;;;;;;8.85;3.80;;;;;;;24.36;37.04;100792.16;4983134;28;20470;-85
2023/06/13 09:05:18;;;;;;;6.88;3.50;;;;;;;24.55;37.71;100806.03;4986517;28;20070;-85
2023/06/13 09:07:48;;;;;;;7.18;3.47;;;;;;;24.85;37.57;100789.84;4997652;28;20108;-88
2023/06/13 09:10:15;;;;;;;8.10;3.70;;;;;;;25.24;38.70;100812.75;5007541;28;20043;-88
2023/06/13 09:12:43;;;;;;;5.90;3.17;;;;;;;25.64;38.41;100814.16;5001098;28;20030;-87
2023/06/13 09:15:10;;;;;;;5.82;3.15;;;;;;;25.80;35.71;100784.69;5003536;28;20138;-84
2023/06/13 09:17:37;;;;;;;8.45;3.28;;;;;;;25.62;36.28;100792.09;5000016;28;20053;-88
2023/06/13 09:20:06;;;;;;;7.43;3.37;;;;;;;25.58;35.89;100788.28;5002972;28;20038;-85
2023/06/13 09:22:35;;;;;;;4.57;3.40;;;;;;;25.61;36.24;100792.44;5007390;28;20038;-85
2023/06/13 09:25:04;;;;;;;7.80;3.78;;;;;;;25.41;34.66;100783.34;5000433;28;20038;-90
2023/06/13 09:27:30;;;;;;;7.20;3.58;;;;;;;25.02;36.26;100782.81;4996294;28;20054;-90
2023/06/13 09:30:00;;;;;;;6.15;3.38;;;;;;;25.13;36.05;100787.03;4997246;28;20044;-89
2023/06/13 09:32:27;;;;;;;4.85;3.40;;;;;;;25.91;36.60;100790.03;4994578;28;20053;-83
2023/06/13 09:34:53;;;;;;;7.30;3.83;;;;;;;26.59;36.14;100787.13;4992540;28;20066;-90
2023/06/13 09:37:20;;;;;;;6.70;3.60;;;;;;;26.74;34.23;100766.28;4993984;28;20050;-88
2023/06/13 09:39:50;;;;;;;9.02;3.78;;;;;;;26.79;32.85;100754.97;4975262;28;20034;-88
2023/06/13 09:42:21;;;;;;;5.25;3.58;;;;;;;27.31;34.52;100783.41;4988255;28;20031;-87
2023/06/13 09:44:48;;;;;;;6.53;3.50;;;;;;;27.75;33.30;100759.06;4982818;28;20355;-84
2023/06/13 09:47:25;;;;;;;5.38;3.70;;;;;;;27.67;31.46;100749.50;4990926;28;20038;-85
2023/06/13 09:49:58;;;;;;;6.43;3.33;;;;;;;27.63;32.15;100767.28;4986188;28;20030;-85
2023/06/13 09:52:32;;;;;;;8.95;3.80;;;;;;;27.73;31.92;100749.31;4989580;28;20074;-86
2023/06/13 09:54:58;;;;;;;6.80;3.63;;;;;;;27.83;31.45;100743.34;4993372;28;20120;-87
2023/06/13 09:57:24;;;;;;;7.28;3.42;;;;;;;27.04;31.88;100746.97;4984115;28;20038;-86
2023/06/13 09:59:52;;;;;;;6.13;3.57;;;;;;;27.43;32.98;100764.81;4992282;28;20035;-84
2023/06/13 10:02:22;;;;;;;6.03;3.58;;;;;;;28.14;30.84;100742.31;4979798;28;20423;-80
2023/06/13 10:04:51;;;;;;;7.70;3.33;;;;;;;28.53;30.88;100745.97;4981701;28;20030;-82
2023/06/13 10:07:23;;;;;;;8.40;3.28;;;;;;;29.01;30.70;100737.47;4985462;28;20050;-81
2023/06/13 10:09:49;;;;;;;6.35;3.22;;;;;;;29.22;29.03;100717.03;4974928;28;20390;-85
2023/06/13 10:12:21;;;;;;;5.47;3.38;;;;;;;29.50;26.76;100683.56;4980600;28;20038;-82
2023/06/13 10:14:54;;;;;;;6.85;3.70;;;;;;;29.07;28.66;100715.66;4983309;28;20113;-82
2023/06/13 10:17:21;;;;;;;5.80;3.38;;;;;;;29.47;28.86;100715.16;4985015;28;20035;-83
2023/06/13 10:19:58;;;;;;;7.15;3.90;;;;;;;29.71;28.47;100714.47;4978950;28;20049;-83
2023/06/13 10:22:24;;;;;;;6.25;3.47;;;;;;;30.25;26.67;100698.66;4976045;28;20043;-83
2023/06/13 10:24:53;;;;;;;6.63;3.28;;;;;;;31.34;25.57;100692.78;4994746;28;20038;-84
2023/06/13 10:27:21;;;;;;;4.65;3.30;;;;;;;32.95;23.46;100671.09;4983289;28;20048;-82
2023/06/13 10:30:21;;;;;;;5.63;3.42;;;;;;;34.25;21.74;100658.63;4987431;28;20116;-84
2023/06/13 10:33:16;;;;;;;4.40;3.40;;;;;;;35.32;21.10;100666.22;4980063;28;20048;-82